Time;durP1;ratioP1;P1;durP2;ratioP2;P2;SDS_P1;SDS_P2;PMS_P1;PMS_P2;Temp;Humidity;BMP_temperature;BMP_pressure;BME280_temperature;BME280_humidity;BME280_pressure;Samples;Min_cycle;Max_cycle;Signal;HPM_P1;HPM_P2
2022/08/12 00:43:27;;;;;;;10.45;8.75;;;;;;;21.20;90.51;99995.70;1722940;82;21236;-78
2022/08/12 00:48:40;;;;;;;10.05;8.90;;;;;;;21.22;90.33;99989.55;1716576;82;21584;-80
2022/08/12 00:51:07;;;;;;;10.70;8.15;;;;;;;21.18;90.45;99993.77;1730830;82;20990;-75
2022/08/12 00:53:34;;;;;;;9.95;8.88;;;;;;;21.23;90.28;100002.01;1725163;82;21585;-77
2022/08/12 00:56:01;;;;;;;9.85;8.88;;;;;;;21.29;90.03;99997.55;1716231;82;21037;-75
2022/08/12 00:58:30;;;;;;;10.00;9.20;;;;;;;21.25;90.01;99994.49;1714091;82;21109;-76
2022/08/12 01:01:06;;;;;;;11.45;8.28;;;;;;;21.20;90.08;99997.05;1715683;83;21482;-76
2022/08/12 01:11:52;;;;;;;12.13;8.95;;;;;;;21.18;89.98;100004.57;1650588;86;21578;-79
2022/08/12 01:14:22;;;;;;;10.48;8.35;;;;;;;21.21;89.88;99998.72;1692243;83;21101;-76
2022/08/12 01:16:52;;;;;;;9.58;8.68;;;;;;;21.25;89.65;100006.66;1726293;82;21074;-79
2022/08/12 01:19:20;;;;;;;10.55;9.35;;;;;;;21.23;89.65;100006.56;1707065;83;21566;-80
2022/08/12 01:22:27;;;;;;;9.43;8.58;;;;;;;21.17;89.77;100001.56;1706795;83;21148;-81
2022/08/12 01:25:04;;;;;;;8.73;7.90;;;;;;;21.17;89.80;100013.21;1701070;83;21570;-76
2022/08/12 01:27:33;;;;;;;10.18;8.85;;;;;;;21.23;89.64;100005.22;1663980;82;21062;-77
2022/08/12 01:30:03;;;;;;;9.95;8.93;;;;;;;21.19;89.69;100000.30;1696542;82;21043;-77
2022/08/12 01:32:36;;;;;;;9.95;8.95;;;;;;;21.17;89.73;100001.05;1710100;83;21078;-75
2022/08/12 01:35:09;;;;;;;12.23;9.00;;;;;;;21.19;89.59;100008.40;1702275;83;21142;-76
2022/08/12 01:37:47;;;;;;;9.43;8.50;;;;;;;21.24;89.47;100023.91;1703463;82;21121;-75
2022/08/12 01:40:17;;;;;;;10.93;8.60;;;;;;;21.23;89.43;100026.33;1673856;83;21590;-77
2022/08/12 01:42:47;;;;;;;9.65;8.65;;;;;;;21.20;89.47;100024.89;1712880;83;21577;-77
2022/08/12 01:45:16;;;;;;;9.15;8.28;;;;;;;21.25;89.39;100022.02;1694616;83;21062;-78
2022/08/12 01:48:11;;;;;;;10.28;9.38;;;;;;;21.33;89.11;100010.89;1692941;83;21131;-79
2022/08/12 01:51:16;;;;;;;13.08;9.13;;;;;;;21.33;89.00;100001.44;1703403;83;21061;-77
2022/08/12 01:54:04;;;;;;;8.80;8.00;;;;;;;21.28;88.92;100003.47;1692652;83;21090;-77
2022/08/12 01:56:48;;;;;;;8.60;7.90;;;;;;;21.31;88.79;100004.91;1693063;83;21007;-76
2022/08/12 02:01:58;;;;;;;8.75;7.85;;;;;;;21.29;88.73;100001.08;1677761;83;21139;-76
2022/08/12 02:11:20;;;;;;;9.83;8.88;;;;;;;21.31;88.39;99996.80;1689278;83;21019;-79
2022/08/12 02:14:32;;;;;;;9.83;8.58;;;;;;;21.23;88.56;100003.36;1674777;83;21023;-78
2022/08/12 02:17:31;;;;;;;10.55;7.90;;;;;;;21.23;88.53;99999.81;1693691;84;21162;-76
2022/08/12 02:20:12;;;;;;;9.18;7.80;;;;;;;21.24;88.47;100000.94;1693914;83;20990;-78
2022/08/12 02:22:43;;;;;;;13.80;8.58;;;;;;;21.17;88.56;99998.86;1779702;80;21538;-78
2022/08/12 02:25:15;;;;;;;9.08;8.18;;;;;;;21.12;88.74;100000.10;1744557;80;21446;-77
2022/08/12 02:27:47;;;;;;;10.20;9.13;;;;;;;21.14;88.70;99997.98;1736316;80;21025;-79
2022/08/12 02:30:18;;;;;;;9.90;9.00;;;;;;;21.13;88.78;100000.37;1711121;82;21127;-77
2022/08/12 02:32:47;;;;;;;9.00;8.20;;;;;;;21.06;89.02;99992.92;1714040;83;21026;-76
2022/08/12 02:35:23;;;;;;;11.30;8.33;;;;;;;21.05;89.05;99998.02;1734232;81;21557;-77
2022/08/12 02:37:54;;;;;;;9.45;8.63;;;;;;;21.10;88.95;100002.20;1713503;82;21049;-78
2022/08/12 02:40:22;;;;;;;9.88;8.88;;;;;;;21.06;89.00;99992.92;1723404;82;21502;-76
2022/08/12 02:43:06;;;;;;;8.93;8.08;;;;;;;20.96;89.18;99984.84;1746296;80;21078;-79
2022/08/12 02:45:53;;;;;;;9.05;8.15;;;;;;;20.96;89.30;99998.89;1721819;80;21085;-77
2022/08/12 02:48:59;;;;;;;9.35;8.53;;;;;;;20.97;89.26;99995.93;1744143;80;21837;-76
2022/08/12 02:51:33;;;;;;;9.85;8.93;;;;;;;20.92;89.47;99999.02;1753138;80;21006;-77
2022/08/12 02:54:02;;;;;;;8.08;7.47;;;;;;;20.86;89.62;99995.90;1743443;80;21029;-74
2022/08/12 02:56:29;;;;;;;9.05;8.25;;;;;;;20.91;89.52;99991.99;1744783;80;21169;-79
2022/08/12 02:58:59;;;;;;;9.50;8.58;;;;;;;20.91;89.52;99984.70;1743032;80;21038;-75
2022/08/12 03:01:34;;;;;;;11.95;8.53;;;;;;;20.84;89.55;99988.02;1745571;80;21478;-74
2022/08/12 03:04:06;;;;;;;8.88;8.00;;;;;;;20.81;89.70;99995.25;1755350;80;21049;-76
2022/08/12 03:07:05;;;;;;;9.88;8.93;;;;;;;20.87;89.58;100001.08;1744861;80;21010;-75
2022/08/12 03:09:34;;;;;;;10.13;9.33;;;;;;;20.85;89.66;99999.67;1730997;80;21086;-76
2022/08/12 03:12:08;;;;;;;9.53;8.73;;;;;;;20.80;89.84;99997.13;1728456;80;21044;-77
2022/08/12 03:14:35;;;;;;;8.83;8.00;;;;;;;20.83;89.74;99995.02;1745012;80;21446;-77
2022/08/12 03:17:26;;;;;;;9.53;8.15;;;;;;;20.88;89.61;99996.48;1745333;82;21546;-76
2022/08/12 03:19:54;;;;;;;9.95;9.05;;;;;;;20.86;89.60;99990.50;1723151;82;21054;-77
2022/08/12 03:22:20;;;;;;;8.40;7.53;;;;;;;20.79;89.64;99984.67;1742012;80;21306;-76
2022/08/12 03:24:48;;;;;;;8.88;8.00;;;;;;;20.78;89.60;99984.39;1737644;81;21033;-76
2022/08/12 03:27:15;;;;;;;10.18;9.28;;;;;;;20.83;89.56;99979.64;1742739;80;21042;-77
2022/08/12 03:29:48;;;;;;;9.43;8.53;;;;;;;20.78;89.63;99976.29;1744367;80;21050;-76
2022/08/12 03:32:12;;;;;;;8.55;7.75;;;;;;;20.72;89.75;99970.97;1722288;82;21576;-75
2022/08/12 03:34:38;;;;;;;8.88;8.15;;;;;;;20.73;89.85;99976.14;1746183;80;21171;-75
2022/08/12 03:37:06;;;;;;;8.85;8.05;;;;;;;20.79;89.78;99985.20;1745750;80;21585;-78
2022/08/12 03:42:20;;;;;;;12.37;9.25;;;;;;;20.73;89.92;99974.80;1734052;82;21010;-76
2022/08/12 04:01:58;;;;;;;9.03;8.23;;;;;;;20.77;89.89;99995.41;1750807;80;21100;-75
2022/08/12 04:04:35;;;;;;;11.05;8.13;;;;;;;20.80;89.87;99998.98;1735776;81;21613;-76
2022/08/12 04:07:00;;;;;;;11.88;9.53;;;;;;;20.89;89.55;99998.97;1739916;80;21455;-76
2022/08/12 04:09:30;;;;;;;11.65;9.45;;;;;;;20.90;89.42;100006.53;1721347;82;20998;-77
2022/08/12 04:14:43;;;;;;;9.63;8.35;;;;;;;20.94;89.23;99999.64;1754628;80;21566;-75
2022/08/12 04:17:10;;;;;;;10.65;9.63;;;;;;;21.06;88.81;99996.98;1733655;81;21528;-74
2022/08/12 04:19:37;;;;;;;10.40;9.40;;;;;;;21.09;88.64;100001.90;1727415;82;21035;-76
2022/08/12 04:22:04;;;;;;;9.35;8.05;;;;;;;21.09;88.54;99997.31;1722191;82;21110;-76
2022/08/12 04:24:33;;;;;;;11.90;9.15;;;;;;;21.18;88.25;99995.12;1691072;82;21074;-74
2022/08/12 04:27:00;;;;;;;10.05;9.15;;;;;;;21.29;87.76;99996.20;1718221;82;21217;-75
2022/08/12 04:29:26;;;;;;;12.50;9.20;;;;;;;21.30;87.52;99996.48;1720848;82;21123;-76
2022/08/12 04:31:54;;;;;;;11.68;8.40;;;;;;;21.25;87.28;99993.14;1696261;83;21340;-76
2022/08/12 04:34:24;;;;;;;9.20;8.40;;;;;;;21.23;87.27;99992.55;1698328;81;21075;-79
2022/08/12 04:36:52;;;;;;;10.23;9.08;;;;;;;21.27;87.10;99986.16;1736489;82;21074;-78
2022/08/12 04:39:20;;;;;;;11.50;10.48;;;;;;;21.23;87.14;99986.30;1740156;80;21123;-79
2022/08/12 04:41:48;;;;;;;10.88;8.55;;;;;;;21.17;87.21;99985.34;1725246;83;20915;-80
2022/08/12 04:44:15;;;;;;;9.75;8.85;;;;;;;21.17;87.25;99982.65;1741695;82;21002;-80
2022/08/12 04:46:41;;;;;;;11.33;8.68;;;;;;;21.20;87.15;99980.84;1740212;82;21302;-80
2022/08/12 04:49:09;;;;;;;10.63;9.65;;;;;;;21.21;87.03;99989.27;1726775;82;20998;-79
2022/08/12 04:51:36;;;;;;;9.95;9.05;;;;;;;21.19;87.12;99999.48;1751357;80;22231;-78
2022/08/12 04:54:04;;;;;;;10.10;9.13;;;;;;;21.23;87.12;99995.25;1738465;80;21045;-77
2022/08/12 04:56:31;;;;;;;10.43;8.88;;;;;;;21.34;86.86;100009.31;1741459;80;21090;-78
2022/08/12 04:59:00;;;;;;;10.43;9.43;;;;;;;21.35;86.65;99998.78;1746301;80;21066;-80
2022/08/12 05:01:29;;;;;;;11.50;8.83;;;;;;;21.37;86.57;100006.13;1729929;82;21501;-82
2022/08/12 05:03:56;;;;;;;11.55;9.03;;;;;;;21.47;86.37;100008.83;1745271;82;21208;-81
2022/08/12 05:06:24;;;;;;;10.23;8.93;;;;;;;21.63;86.04;100010.00;1744205;80;21481;-80
2022/08/12 05:08:55;;;;;;;10.78;9.25;;;;;;;21.72;85.64;99991.03;1752597;80;21033;-81
2022/08/12 05:11:23;;;;;;;11.05;10.05;;;;;;;21.82;84.95;99987.73;1745313;80;21970;-82
2022/08/12 05:13:53;;;;;;;9.68;8.68;;;;;;;21.86;84.55;99992.42;1745651;80;21069;-81
2022/08/12 05:16:21;;;;;;;10.68;9.38;;;;;;;21.98;84.27;99992.41;1776361;80;21731;-81
2022/08/12 05:18:48;;;;;;;11.00;9.80;;;;;;;22.14;83.67;99986.28;1728165;80;21184;-80
2022/08/12 05:21:15;;;;;;;10.82;9.85;;;;;;;22.16;82.93;99984.16;1745360;80;22280;-82
2022/08/12 05:23:42;;;;;;;10.98;9.43;;;;;;;22.11;82.84;99977.81;1744977;82;21062;-82
2022/08/12 05:26:09;;;;;;;9.60;8.73;;;;;;;22.11;82.85;99984.04;1742771;80;21050;-80
2022/08/12 05:28:36;;;;;;;12.07;9.60;;;;;;;22.23;82.59;99977.78;1746611;80;21112;-82
2022/08/12 05:31:03;;;;;;;11.20;10.00;;;;;;;22.29;82.42;99976.86;1741684;80;21006;-79
2022/08/12 05:33:37;;;;;;;12.53;11.15;;;;;;;22.32;82.41;99977.20;1745140;80;21513;-79
2022/08/12 05:36:08;;;;;;;10.68;9.30;;;;;;;22.37;82.43;99978.67;1752853;80;21025;-82
2022/08/12 05:41:20;;;;;;;10.80;9.63;;;;;;;22.63;81.49;99987.28;1698513;82;21139;-81
2022/08/12 05:43:49;;;;;;;12.07;10.95;;;;;;;22.66;81.20;99985.99;1722935;82;21030;-78
2022/08/12 05:46:15;;;;;;;11.08;9.98;;;;;;;22.68;81.06;99981.97;1752749;80;21589;-79
2022/08/12 05:48:42;;;;;;;10.70;9.75;;;;;;;22.73;80.95;99975.81;1773727;80;21606;-79
2022/08/12 05:51:10;;;;;;;14.33;9.85;;;;;;;22.84;80.37;99971.42;1748228;80;21002;-77
2022/08/12 05:53:38;;;;;;;11.05;9.95;;;;;;;22.94;79.95;99972.95;1725992;82;21500;-76
2022/08/12 05:56:06;;;;;;;9.93;9.10;;;;;;;22.96;79.75;99974.34;1751561;81;21002;-79
2022/08/12 05:58:33;;;;;;;11.78;10.60;;;;;;;23.00;79.55;99984.16;1727205;80;21542;-76
2022/08/12 06:01:00;;;;;;;10.72;9.48;;;;;;;23.04;79.46;99973.14;1744069;82;21038;-76
2022/08/12 06:03:26;;;;;;;10.55;9.63;;;;;;;23.18;79.25;99964.70;1751342;82;21003;-76
2022/08/12 06:05:55;;;;;;;12.18;9.85;;;;;;;23.32;78.87;99969.56;1733561;82;21235;-76
2022/08/12 06:08:23;;;;;;;11.03;10.13;;;;;;;23.34;78.48;99985.58;1734067;80;21541;-77
2022/08/12 06:10:50;;;;;;;12.82;11.05;;;;;;;23.34;78.35;99993.17;1724112;81;21011;-78
2022/08/12 06:13:17;;;;;;;11.38;10.43;;;;;;;23.37;78.44;99991.84;1765907;80;21059;-78
2022/08/12 06:15:45;;;;;;;15.72;9.45;;;;;;;23.43;78.35;100000.88;1748970;80;21127;-79
2022/08/12 06:18:13;;;;;;;12.30;11.10;;;;;;;23.53;78.14;99999.17;1716260;82;21293;-77
2022/08/12 06:20:39;;;;;;;13.70;11.05;;;;;;;23.66;77.78;99999.38;1729846;80;21037;-78
2022/08/12 06:23:06;;;;;;;11.48;10.35;;;;;;;23.69;77.31;99998.86;1747323;82;21017;-78
2022/08/12 06:25:33;;;;;;;11.00;9.90;;;;;;;23.69;77.10;100004.83;1751390;82;21003;-75
2022/08/12 06:28:00;;;;;;;11.55;10.45;;;;;;;23.66;76.76;100012.09;1726213;82;21089;-76
2022/08/12 06:30:28;;;;;;;11.43;10.50;;;;;;;23.63;76.69;99998.50;1740549;82;21106;-75
2022/08/12 06:32:55;;;;;;;11.38;9.95;;;;;;;23.64;76.71;100002.87;1744842;82;20998;-76
2022/08/12 06:35:25;;;;;;;11.68;10.38;;;;;;;23.69;76.64;99991.27;1731103;80;21064;-81
2022/08/12 06:37:54;;;;;;;11.95;11.05;;;;;;;23.65;77.11;99981.98;1727640;80;21082;-79
2022/08/12 06:43:07;;;;;;;11.60;10.60;;;;;;;23.57;78.48;99986.48;1726473;81;21189;-77
2022/08/12 06:45:44;;;;;;;12.05;10.65;;;;;;;23.61;78.97;99993.05;1739303;82;21034;-79
2022/08/12 06:48:10;;;;;;;14.60;10.23;;;;;;;23.68;78.89;99989.09;1739012;80;21022;-78
2022/08/12 06:50:38;;;;;;;12.88;10.38;;;;;;;23.69;78.54;99995.34;1740091;82;21503;-79
2022/08/12 06:56:09;;;;;;;13.72;10.98;;;;;;;23.78;77.77;99995.23;1879392;75;22957;-77
2022/08/12 06:58:39;;;;;;;11.63;10.63;;;;;;;23.85;77.51;99989.08;1832937;76;21008;-76
2022/08/12 07:01:06;;;;;;;11.53;10.43;;;;;;;23.99;77.28;99996.34;1847804;76;21348;-77
2022/08/12 07:03:32;;;;;;;12.23;11.03;;;;;;;24.11;76.83;99996.23;1838166;76;21049;-76
2022/08/12 07:06:02;;;;;;;12.05;11.05;;;;;;;24.20;75.87;100003.38;1811794;76;21615;-79
2022/08/12 07:08:32;;;;;;;14.83;11.53;;;;;;;24.22;75.78;99999.88;1843410;76;21060;-77
2022/08/12 07:11:02;;;;;;;12.10;10.35;;;;;;;24.29;75.76;99999.16;1832589;76;21674;-81
2022/08/12 07:13:43;;;;;;;11.70;10.80;;;;;;;24.43;75.27;99996.88;1846004;76;20917;-78
2022/08/12 07:16:13;;;;;;;11.28;10.38;;;;;;;24.53;74.71;99996.50;1840124;75;21577;-77
2022/08/12 07:18:46;;;;;;;12.95;11.55;;;;;;;24.55;74.42;99994.05;1844749;76;21104;-78
2022/08/12 07:21:13;;;;;;;;;;;;;;;24.60;74.46;99991.41;1832790;77;21133;-83
2022/08/12 07:23:40;;;;;;;12.85;11.80;;;;;;;24.64;73.53;99997.97;1820526;77;20177;-78
2022/08/12 07:26:09;;;;;;;12.88;11.78;;;;;;;24.58;73.61;99982.70;1839246;76;21150;-80
2022/08/12 07:28:38;;;;;;;14.25;11.33;;;;;;;24.55;73.77;99983.19;1817365;77;21085;-83
2022/08/12 07:31:11;;;;;;;12.60;11.60;;;;;;;24.51;73.56;99986.44;1810313;78;21041;-79
2022/08/12 07:33:41;;;;;;;12.65;11.30;;;;;;;24.57;73.42;99990.55;1771115;79;21052;-80
2022/08/12 07:36:12;;;;;;;12.65;11.43;;;;;;;24.65;73.40;99981.97;1766211;79;21096;-78
2022/08/12 07:38:44;;;;;;;13.58;11.93;;;;;;;24.70;73.36;99986.08;1779763;78;21058;-82
2022/08/12 07:41:17;;;;;;;11.70;10.53;;;;;;;24.69;73.34;99981.73;1788145;78;21005;-81
2022/08/12 07:43:52;;;;;;;13.95;12.55;;;;;;;24.71;73.35;99985.83;1761853;80;21010;-83
2022/08/12 07:46:23;;;;;;;13.75;12.35;;;;;;;24.76;73.35;99979.61;1762467;80;21073;-79
2022/08/12 07:48:53;;;;;;;11.35;10.45;;;;;;;24.83;73.28;99969.37;1765075;80;21557;-80
2022/08/12 07:51:20;;;;;;;12.88;11.35;;;;;;;25.01;72.99;99972.79;1801435;78;21529;-83
2022/08/12 07:53:47;;;;;;;12.78;11.75;;;;;;;25.18;72.39;99963.97;1783663;79;21086;-82
2022/08/12 07:56:14;;;;;;;13.38;12.00;;;;;;;25.26;71.96;99964.06;1793453;79;21056;-83
2022/08/12 07:58:41;;;;;;;13.80;12.40;;;;;;;25.35;71.65;99962.51;1788924;79;21008;-80
2022/08/12 08:01:14;;;;;;;12.55;11.45;;;;;;;25.48;71.12;99953.09;1790050;78;21600;-83
2022/08/12 08:06:30;;;;;;;13.60;12.18;;;;;;;25.67;70.78;99943.94;1779518;79;21136;-78
2022/08/12 08:08:58;;;;;;;12.68;11.25;;;;;;;25.80;70.44;99945.38;1783423;79;21561;-77
2022/08/12 08:14:10;;;;;;;13.80;12.58;;;;;;;25.97;69.89;99942.51;1751588;79;21552;-77
2022/08/12 08:16:39;;;;;;;13.10;12.10;;;;;;;25.98;69.83;99946.33;1765120;79;21870;-75
2022/08/12 08:19:07;;;;;;;12.98;11.68;;;;;;;26.02;69.98;99939.79;1767094;79;21071;-75
2022/08/12 08:21:34;;;;;;;14.18;12.98;;;;;;;26.07;69.87;99952.07;1809823;78;21104;-76
2022/08/12 08:24:13;;;;;;;13.55;12.53;;;;;;;26.09;69.37;99953.43;1770362;80;21493;-78
2022/08/12 08:26:46;;;;;;;14.10;12.98;;;;;;;26.06;69.42;99946.37;1765079;79;21125;-74
2022/08/12 08:29:14;;;;;;;;;;;;;;;25.98;69.42;99949.58;1786237;78;21084;-76
2022/08/12 08:31:45;;;;;;;13.22;12.23;;;;;;;25.97;69.51;99948.77;1779283;79;20261;-77
2022/08/12 08:34:12;;;;;;;14.73;11.38;;;;;;;25.95;69.59;99952.30;1791500;78;21072;-75
2022/08/12 08:36:39;;;;;;;13.40;11.10;;;;;;;26.07;69.31;99956.97;1782161;79;21105;-76
2022/08/12 08:39:10;;;;;;;13.35;11.55;;;;;;;26.22;68.49;99950.77;1806701;78;21040;-77
2022/08/12 08:44:21;;;;;;;11.57;10.28;;;;;;;26.42;67.60;99952.73;1773915;80;21024;-75
2022/08/12 08:46:48;;;;;;;12.68;11.53;;;;;;;26.55;67.15;99950.60;1764501;80;21002;-77
2022/08/12 08:49:18;;;;;;;13.55;11.68;;;;;;;26.66;66.70;99950.38;1761098;79;20991;-73
2022/08/12 08:51:44;;;;;;;12.88;11.57;;;;;;;26.77;66.36;99943.58;1785660;79;21032;-73
2022/08/12 08:54:12;;;;;;;13.22;12.13;;;;;;;26.85;65.98;99940.34;1780696;79;21541;-74
2022/08/12 08:56:43;;;;;;;15.13;11.78;;;;;;;26.91;65.19;99942.49;1786486;78;21138;-77
2022/08/12 08:59:12;;;;;;;12.58;11.35;;;;;;;26.91;65.60;99950.67;1779696;78;21321;-78
2022/08/12 09:01:39;;;;;;;12.82;11.53;;;;;;;27.03;65.44;99961.59;1798159;78;21053;-75
2022/08/12 09:04:07;;;;;;;14.33;12.93;;;;;;;27.20;65.24;99953.15;1804561;78;21028;-78
2022/08/12 09:06:40;;;;;;;13.83;11.30;;;;;;;27.37;65.00;99955.63;1795627;78;22091;-75
2022/08/12 09:09:07;;;;;;;13.18;11.40;;;;;;;27.52;64.55;99952.59;1808974;77;21965;-77
2022/08/12 09:14:18;;;;;;;15.98;11.40;;;;;;;27.82;64.05;99942.16;1755454;79;21059;-75
2022/08/12 09:16:45;;;;;;;12.70;11.38;;;;;;;28.00;63.92;99948.95;1781583;79;21812;-79
2022/08/12 09:19:14;;;;;;;12.82;11.18;;;;;;;28.17;63.63;99962.27;1754371;79;21593;-78
2022/08/12 09:21:40;;;;;;;13.58;12.20;;;;;;;28.38;63.17;99967.89;1768433;79;21104;-78
2022/08/12 09:24:07;;;;;;;12.35;11.28;;;;;;;28.67;62.88;99965.05;1799495;78;21037;-79
2022/08/12 09:26:35;;;;;;;13.28;12.13;;;;;;;28.95;62.16;99964.27;1798665;78;21028;-76
2022/08/12 09:29:01;;;;;;;13.10;11.83;;;;;;;29.21;61.47;99964.12;1784204;78;22333;-81
2022/08/12 09:31:29;;;;;;;12.95;11.78;;;;;;;29.42;60.90;99966.12;1806587;78;21728;-78
2022/08/12 09:33:56;;;;;;;15.10;11.40;;;;;;;29.63;60.49;99971.37;1783366;78;21006;-81
2022/08/12 09:36:22;;;;;;;12.47;11.28;;;;;;;29.78;60.16;99969.31;1791736;78;21734;-80
2022/08/12 09:38:49;;;;;;;12.15;11.08;;;;;;;29.97;59.79;99973.48;1774545;78;21045;-78
2022/08/12 09:41:15;;;;;;;13.00;11.50;;;;;;;30.13;59.62;99973.30;1804427;78;21049;-79
2022/08/12 09:46:31;;;;;;;12.03;11.12;;;;;;;30.41;59.97;99981.77;1771794;79;21303;-79
2022/08/12 09:48:58;;;;;;;15.45;12.03;;;;;;;30.48;60.64;99983.03;1768199;79;21066;-80
2022/08/12 09:51:25;;;;;;;12.53;11.45;;;;;;;30.42;59.09;99982.82;1779113;79;21041;-78
2022/08/12 09:53:52;;;;;;;13.28;11.95;;;;;;;30.30;59.55;99992.00;1777829;79;21075;-78
2022/08/12 09:56:20;;;;;;;12.40;11.30;;;;;;;30.17;60.36;99983.41;1775783;79;21123;-80
2022/08/12 09:58:46;;;;;;;12.63;11.53;;;;;;;29.99;60.14;99984.16;1786189;78;21005;-77
2022/08/12 10:01:13;;;;;;;12.80;11.20;;;;;;;29.73;60.31;99980.91;1800451;78;21001;-81
2022/08/12 10:03:42;;;;;;;15.35;12.13;;;;;;;29.45;61.33;99987.98;1761093;79;21104;-83
2022/08/12 10:06:10;;;;;;;13.00;11.88;;;;;;;29.15;62.03;99983.05;1774037;80;21136;-79
2022/08/12 10:08:37;;;;;;;14.18;12.70;;;;;;;28.85;62.64;99988.97;1796430;78;21304;-89
2022/08/12 10:13:54;;;;;;;16.42;12.33;;;;;;;28.40;63.79;99998.48;1773450;80;21398;-77
2022/08/12 10:16:27;;;;;;;14.58;12.10;;;;;;;28.17;63.89;100005.96;1812996;78;20982;-77
2022/08/12 10:19:00;;;;;;;14.98;12.25;;;;;;;27.96;64.51;100011.48;1804932;78;21033;-80
2022/08/12 10:21:35;;;;;;;;;;;;;;;27.77;65.03;100011.77;1803147;78;21150;-80
2022/08/12 10:23:58;;;;;;;14.15;12.88;;;;;;;27.57;65.70;100000.34;1799169;77;20183;-81
2022/08/12 10:31:54;;;;;;;15.58;13.58;;;;;;;27.02;67.27;100006.84;1798673;78;21045;-74
2022/08/12 10:34:22;;;;;;;15.45;13.78;;;;;;;26.85;67.44;100001.11;1805958;78;21144;-76
2022/08/12 10:36:53;;;;;;;16.30;14.30;;;;;;;26.75;67.81;99998.89;1756757;78;21080;-76
2022/08/12 10:39:20;;;;;;;15.48;13.78;;;;;;;26.71;67.96;100010.87;1763913;78;21129;-74
2022/08/12 10:44:34;;;;;;;14.47;13.05;;;;;;;26.70;68.26;100005.16;1808984;78;21076;-75
2022/08/12 10:47:01;;;;;;;14.55;13.35;;;;;;;26.66;69.07;100011.69;1793207;78;21221;-74
2022/08/12 10:49:30;;;;;;;14.93;13.20;;;;;;;26.64;68.86;100010.33;1797946;79;21525;-76
2022/08/12 10:51:57;;;;;;;14.40;12.98;;;;;;;26.62;68.85;100013.87;1783850;79;21001;-76
2022/08/12 10:54:28;;;;;;;13.70;12.55;;;;;;;26.57;68.87;100004.27;1783109;79;21052;-74
2022/08/12 10:56:53;;;;;;;14.63;13.20;;;;;;;26.53;69.11;100003.17;1777467;79;21021;-74
2022/08/12 10:59:22;;;;;;;15.53;14.07;;;;;;;26.52;69.17;100012.42;1767928;79;21875;-77
2022/08/12 11:01:51;;;;;;;14.28;12.73;;;;;;;26.49;69.44;100010.50;1797961;78;20999;-77
2022/08/12 11:04:18;;;;;;;14.85;13.30;;;;;;;26.45;69.43;100014.86;1809013;78;21088;-76
2022/08/12 11:06:49;;;;;;;14.80;13.43;;;;;;;26.43;69.56;100014.30;1793509;78;21018;-77
2022/08/12 11:09:17;;;;;;;14.35;12.93;;;;;;;26.47;69.69;100012.68;1786113;78;26781;-76
2022/08/12 11:11:48;;;;;;;13.88;12.45;;;;;;;26.58;69.45;100009.98;1808808;78;21161;-76
2022/08/12 11:14:18;;;;;;;20.55;13.25;;;;;;;26.79;69.28;100006.28;1768100;80;21019;-76
2022/08/12 11:16:45;;;;;;;31.55;14.25;;;;;;;26.95;69.16;100008.48;1771452;79;21061;-77
2022/08/12 11:19:12;;;;;;;14.13;12.93;;;;;;;27.02;68.61;99996.78;1768672;79;21052;-74
2022/08/12 11:21:38;;;;;;;14.50;13.32;;;;;;;27.07;68.52;100000.04;1788433;79;20998;-76
2022/08/12 11:24:06;;;;;;;19.40;13.25;;;;;;;27.06;68.47;99998.39;1784551;79;21647;-74
2022/08/12 11:26:32;;;;;;;17.15;13.53;;;;;;;27.01;68.37;99996.48;1771895;79;21102;-75
2022/08/12 11:29:00;;;;;;;13.95;12.50;;;;;;;26.94;68.32;99995.92;1790194;79;20994;-76
2022/08/12 11:31:27;;;;;;;17.37;13.35;;;;;;;26.86;68.27;99991.83;1781546;79;21061;-74
2022/08/12 11:33:53;;;;;;;14.10;12.82;;;;;;;26.73;68.52;99977.36;1772644;79;21576;-76
2022/08/12 11:36:20;;;;;;;15.43;13.60;;;;;;;26.59;68.81;99966.16;1790286;79;21103;-75
2022/08/12 11:38:46;;;;;;;19.20;12.82;;;;;;;26.47;69.21;99970.46;1772222;79;21178;-75
2022/08/12 11:41:13;;;;;;;16.40;13.72;;;;;;;26.35;69.83;99974.49;1773196;79;21013;-79
2022/08/12 11:43:39;;;;;;;14.40;12.63;;;;;;;26.21;70.26;99979.09;1752183;79;21555;-76
2022/08/12 11:46:06;;;;;;;14.50;13.10;;;;;;;26.16;70.52;99986.42;1784508;79;21036;-77
2022/08/12 11:48:38;;;;;;;14.58;13.10;;;;;;;26.16;70.72;99987.79;1779817;79;21150;-76
2022/08/12 11:51:06;;;;;;;15.00;13.67;;;;;;;26.12;70.97;99987.49;1784899;79;21056;-77
2022/08/12 11:53:34;;;;;;;21.40;13.80;;;;;;;26.06;71.33;99990.73;1790956;79;21055;-77
2022/08/12 11:56:02;;;;;;;19.12;14.03;;;;;;;26.04;71.71;99997.53;1786151;79;21004;-76
2022/08/12 11:58:30;;;;;;;15.43;13.45;;;;;;;26.02;71.94;99986.91;1753980;79;21109;-77
2022/08/12 12:00:56;;;;;;;15.88;13.25;;;;;;;26.05;72.02;99982.27;1780755;79;21200;-76
2022/08/12 12:03:22;;;;;;;15.03;12.95;;;;;;;26.13;72.46;100002.73;1797220;78;21068;-75
2022/08/12 12:05:49;;;;;;;19.67;12.58;;;;;;;26.21;72.35;100003.61;1785203;78;20970;-73
2022/08/12 12:08:23;;;;;;;17.90;14.90;;;;;;;26.19;72.24;100009.86;1778316;78;21074;-72
2022/08/12 12:10:52;;;;;;;15.35;13.75;;;;;;;26.16;73.40;100017.19;1789617;78;21086;-72
2022/08/12 12:13:19;;;;;;;18.73;13.68;;;;;;;26.11;72.49;100010.89;1800222;78;21197;-74
2022/08/12 12:15:47;;;;;;;15.50;14.05;;;;;;;26.08;72.23;100010.89;1805673;78;21009;-75
2022/08/12 12:18:24;;;;;;;16.25;13.25;;;;;;;26.04;72.43;100004.34;1798276;78;21069;-76
2022/08/12 12:20:52;;;;;;;20.12;14.93;;;;;;;26.00;72.34;100003.20;1789259;78;21053;-70
2022/08/12 12:23:18;;;;;;;19.57;13.25;;;;;;;25.96;72.48;99998.86;1801279;78;21088;-74
2022/08/12 12:25:45;;;;;;;16.35;13.38;;;;;;;26.00;72.71;99997.23;1753568;78;21659;-75
2022/08/12 12:28:12;;;;;;;15.10;13.38;;;;;;;26.07;72.38;99995.63;1776395;79;21041;-75
2022/08/12 12:30:39;;;;;;;21.90;14.03;;;;;;;26.06;72.72;99998.09;1757993;80;21579;-74
2022/08/12 12:33:06;;;;;;;15.10;13.65;;;;;;;26.08;72.60;100002.72;1785465;78;20997;-75
2022/08/12 12:35:33;;;;;;;15.90;14.23;;;;;;;26.12;73.19;100006.55;1798239;78;21110;-77
2022/08/12 12:38:04;;;;;;;14.87;13.60;;;;;;;26.18;73.48;100004.13;1797419;78;21592;-75
2022/08/12 12:40:32;;;;;;;20.15;14.83;;;;;;;26.25;73.03;100001.98;1780476;79;21021;-73
2022/08/12 12:43:02;;;;;;;16.82;14.93;;;;;;;26.32;72.43;100008.53;1794071;79;21006;-79
2022/08/12 12:45:31;;;;;;;16.65;14.43;;;;;;;26.37;72.11;99997.67;1784056;79;21069;-80
2022/08/12 12:48:07;;;;;;;14.45;12.93;;;;;;;26.42;71.82;100005.03;1754030;79;21019;-73
2022/08/12 12:50:43;;;;;;;14.55;13.28;;;;;;;26.51;71.73;99997.98;1793990;78;21165;-77
2022/08/12 12:53:11;;;;;;;17.05;13.68;;;;;;;26.62;71.34;99982.53;1787336;79;21047;-75
2022/08/12 12:55:38;;;;;;;13.53;12.37;;;;;;;26.67;71.02;99991.51;1778141;80;21111;-77
2022/08/12 12:58:10;;;;;;;15.23;13.65;;;;;;;26.70;71.13;99996.98;1798333;78;21076;-76
2022/08/12 13:00:35;;;;;;;15.20;13.80;;;;;;;26.70;70.71;99986.09;1795600;78;21075;-76
2022/08/12 13:03:02;;;;;;;15.45;13.90;;;;;;;26.75;70.74;99985.27;1811885;78;21209;-76
2022/08/12 13:05:37;;;;;;;14.93;13.32;;;;;;;26.79;70.53;99985.00;1814651;78;21100;-78
2022/08/12 13:08:25;;;;;;;15.10;13.75;;;;;;;26.88;70.75;99980.11;1815234;78;21612;-75
2022/08/12 13:10:54;;;;;;;15.72;14.28;;;;;;;27.01;70.90;99985.58;1794740;78;21031;-76
2022/08/12 13:13:21;;;;;;;14.95;13.28;;;;;;;27.16;70.40;99989.39;1821738;78;21127;-78
2022/08/12 13:15:49;;;;;;;15.05;13.70;;;;;;;27.31;70.17;99988.06;1815365;78;21073;-76
2022/08/12 13:18:16;;;;;;;14.30;13.00;;;;;;;27.45;69.26;99984.27;1790640;78;21033;-76
2022/08/12 13:20:47;;;;;;;15.65;14.03;;;;;;;27.57;69.34;99986.15;1801793;78;21088;-76
2022/08/12 13:23:18;;;;;;;16.07;13.13;;;;;;;27.69;68.92;99986.41;1804299;78;21553;-74
2022/08/12 13:25:46;;;;;;;14.53;13.20;;;;;;;27.76;68.37;99986.39;1776827;79;21298;-76
2022/08/12 13:28:23;;;;;;;15.40;13.53;;;;;;;27.80;68.15;99982.02;1812989;78;21127;-75
2022/08/12 13:30:52;;;;;;;14.95;13.55;;;;;;;27.84;68.00;99985.81;1798486;78;21029;-76